createdAt,value
2017-07-03T00:01:48.608Z,101142.38
2017-07-03T00:04:17.723Z,101149.58
2017-07-03T00:06:46.809Z,101138.41
2017-07-03T00:09:15.920Z,101135.39
2017-07-03T00:11:44.952Z,101145.11
2017-07-03T00:14:14.037Z,101148.13
2017-07-03T00:16:43.340Z,101147.69
2017-07-03T00:19:12.392Z,101144.55
2017-07-03T00:21:41.499Z,101153.52
2017-07-03T00:24:10.588Z,101155.87
2017-07-03T00:26:39.641Z,101152.91
2017-07-03T00:29:08.740Z,101158.43
2017-07-03T00:31:37.896Z,101154.03
2017-07-03T00:34:07.297Z,101156.55
2017-07-03T00:36:36.376Z,101156.01
2017-07-03T00:39:05.467Z,101152.71
2017-07-03T00:41:34.515Z,101152.58
2017-07-03T00:44:03.576Z,101155.81
2017-07-03T00:46:32.632Z,101151.80
2017-07-03T00:49:01.737Z,101147.73
2017-07-03T00:51:30.831Z,101154.33
2017-07-03T00:53:59.904Z,101155.88
2017-07-03T00:56:28.959Z,101148.31
2017-07-03T00:58:58.021Z,101148.01
2017-07-03T01:01:27.081Z,101151.38
2017-07-03T01:03:56.149Z,101144.28
2017-07-03T01:06:25.200Z,101150.02
2017-07-03T01:08:54.293Z,101148.97
2017-07-03T01:11:23.348Z,101153.80
2017-07-03T01:13:52.413Z,101147.04
2017-07-03T01:16:21.496Z,101157.55
2017-07-03T01:18:50.568Z,101156.17
2017-07-03T01:21:19.728Z,101154.51
2017-07-03T01:23:48.796Z,101162.05
2017-07-03T01:26:17.876Z,101154.73
2017-07-03T01:28:46.938Z,101156.13
2017-07-03T01:31:16.096Z,101153.06
2017-07-03T01:33:45.169Z,101152.30
2017-07-03T01:36:14.268Z,101150.70
2017-07-03T01:38:43.564Z,101149.92
2017-07-03T01:41:12.699Z,101144.67
2017-07-03T01:43:41.745Z,101140.42
2017-07-03T01:46:10.862Z,101143.62
2017-07-03T01:48:39.921Z,101141.53
2017-07-03T01:51:09.004Z,101130.59
2017-07-03T01:53:38.083Z,101137.34
2017-07-03T01:56:07.160Z,101132.90
2017-07-03T01:58:36.256Z,101134.33
2017-07-03T02:01:05.356Z,101141.62
2017-07-03T02:03:34.446Z,101136.64
2017-07-03T02:06:03.534Z,101142.59
2017-07-03T02:08:32.578Z,101134.05
2017-07-03T02:11:01.668Z,101140.88
2017-07-03T02:13:30.720Z,101140.31
2017-07-03T02:15:59.788Z,101148.42
2017-07-03T02:18:28.861Z,101149.69
2017-07-03T02:20:57.927Z,101148.16
2017-07-03T02:23:26.981Z,101154.02
2017-07-03T02:25:56.044Z,101150.56
2017-07-03T02:28:25.136Z,101152.81
2017-07-03T02:30:54.171Z,101151.27
2017-07-03T02:33:23.236Z,101150.22
2017-07-03T02:35:52.300Z,101145.16
2017-07-03T02:38:21.368Z,101143.23
2017-07-03T02:40:50.500Z,101141.79
2017-07-03T02:43:19.564Z,101145.19
2017-07-03T02:45:48.671Z,101144.30
2017-07-03T02:48:17.705Z,101134.84
2017-07-03T02:50:46.824Z,101140.02
2017-07-03T02:53:15.869Z,101131.39
2017-07-03T02:55:44.928Z,101130.66
2017-07-03T02:58:14.034Z,101137.17
2017-07-03T03:00:43.147Z,101136.61
2017-07-03T03:03:12.272Z,101130.08
2017-07-03T03:05:41.332Z,101128.81
2017-07-03T03:08:10.467Z,101134.28
2017-07-03T03:10:39.496Z,101129.14
2017-07-03T03:13:08.805Z,101124.31
2017-07-03T03:15:37.862Z,101127.12
2017-07-03T03:18:07.012Z,101133.95
2017-07-03T03:20:36.046Z,101131.89
2017-07-03T03:23:05.121Z,101134.22
2017-07-03T03:25:34.165Z,101145.27
2017-07-03T03:28:03.256Z,101143.75
2017-07-03T03:30:32.363Z,101141.66
2017-07-03T03:33:01.412Z,101143.98
2017-07-03T03:35:30.460Z,101144.39
2017-07-03T03:37:59.529Z,101149.34
2017-07-03T03:40:28.626Z,101147.57
2017-07-03T03:42:57.714Z,101150.78
2017-07-03T03:45:26.759Z,101158.25
2017-07-03T03:47:55.807Z,101156.19
2017-07-03T03:50:24.884Z,101157.66
2017-07-03T03:52:53.980Z,101157.20
2017-07-03T03:55:23.035Z,101152.30
2017-07-03T03:57:52.141Z,101162.20
2017-07-03T04:00:21.276Z,101149.93
2017-07-03T04:02:50.453Z,101155.55
2017-07-03T04:05:19.515Z,101159.06
2017-07-03T04:07:48.581Z,101150.31
2017-07-03T04:10:17.692Z,101152.88
2017-07-03T04:12:46.771Z,101160.77
2017-07-03T04:15:15.975Z,101153.38
2017-07-03T04:17:45.037Z,101157.33
2017-07-03T04:20:14.105Z,101159.42
2017-07-03T04:22:43.186Z,101152.92
2017-07-03T04:25:12.251Z,101160.23
2017-07-03T04:27:41.291Z,101155.97
2017-07-03T04:30:10.391Z,101154.60
2017-07-03T04:32:39.465Z,101155.19
2017-07-03T04:35:08.541Z,101160.64
2017-07-03T04:37:37.597Z,101157.11
2017-07-03T04:40:06.995Z,101154.84
2017-07-03T04:42:36.040Z,101155.28
2017-07-03T04:45:05.111Z,101164.67
2017-07-03T04:47:34.191Z,101167.40
2017-07-03T04:50:04.182Z,101167.27
2017-07-03T04:52:33.274Z,101159.63
2017-07-03T04:55:02.343Z,101155.93
2017-07-03T04:57:31.763Z,101161.41
2017-07-03T05:00:00.870Z,101158.02
2017-07-03T05:02:30.374Z,101154.58
2017-07-03T05:04:59.420Z,101150.00
2017-07-03T05:07:28.532Z,101149.69
2017-07-03T05:09:57.603Z,101138.20
2017-07-03T05:12:26.653Z,101145.66
2017-07-03T05:14:55.722Z,101142.56
2017-07-03T05:17:24.816Z,101139.57
2017-07-03T05:19:53.894Z,101147.38
2017-07-03T05:22:22.975Z,101144.45
2017-07-03T05:24:52.051Z,101138.36
2017-07-03T05:27:21.095Z,101143.00
2017-07-03T05:29:50.180Z,101147.75
2017-07-03T05:32:19.225Z,101141.81
2017-07-03T05:34:48.315Z,101141.95
2017-07-03T05:37:17.392Z,101137.36
2017-07-03T05:39:46.508Z,101140.73
2017-07-03T05:42:15.625Z,101143.13
2017-07-03T05:44:44.912Z,101139.80
2017-07-03T05:47:14.015Z,101136.19
2017-07-03T05:49:43.085Z,101141.45
2017-07-03T05:52:12.203Z,101142.29
2017-07-03T05:54:41.296Z,101144.73
2017-07-03T05:57:10.438Z,101139.19
2017-07-03T05:59:39.526Z,101146.26
2017-07-03T06:02:08.593Z,101139.53
2017-07-03T06:04:37.720Z,101140.39
2017-07-03T06:07:06.829Z,101141.14
2017-07-03T06:09:35.879Z,101138.72
2017-07-03T06:12:05.234Z,101136.72
2017-07-03T06:14:34.304Z,101144.88
2017-07-03T06:17:03.462Z,101140.85
2017-07-03T06:19:32.533Z,101138.94
2017-07-03T06:22:01.579Z,101144.31
2017-07-03T06:24:30.676Z,101145.20
2017-07-03T06:26:59.733Z,101141.02
2017-07-03T06:29:28.796Z,101138.13
2017-07-03T06:31:57.867Z,101143.97
2017-07-03T06:34:26.930Z,101141.27
2017-07-03T06:36:56.032Z,101146.45
2017-07-03T06:39:25.165Z,101136.42
2017-07-03T06:41:54.493Z,101139.95
2017-07-03T06:44:23.601Z,101138.89
2017-07-03T06:46:52.696Z,101133.75
2017-07-03T06:49:21.793Z,101144.83
2017-07-03T06:51:50.868Z,101144.84
2017-07-03T06:54:21.632Z,101140.09
2017-07-03T06:56:50.707Z,101140.53
2017-07-03T06:59:19.770Z,101136.38
2017-07-03T07:01:48.855Z,101133.23
2017-07-03T07:04:18.093Z,101134.91
2017-07-03T07:06:47.140Z,101137.57
2017-07-03T07:09:16.253Z,101134.18
2017-07-03T07:11:45.337Z,101140.35
2017-07-03T07:14:14.422Z,101142.78
2017-07-03T07:16:43.492Z,101140.13
2017-07-03T07:19:13.411Z,101141.22
2017-07-03T07:21:42.620Z,101140.82
2017-07-03T07:24:11.722Z,101148.25
2017-07-03T07:26:41.798Z,101145.31
2017-07-03T07:29:10.914Z,101144.31
2017-07-03T07:31:39.962Z,101144.47
2017-07-03T07:34:09.083Z,101144.58
2017-07-03T07:36:38.143Z,101141.30
2017-07-03T07:39:07.203Z,101133.69
2017-07-03T07:41:36.257Z,101140.55
2017-07-03T07:44:06.453Z,101140.34
2017-07-03T07:46:35.527Z,101130.27
2017-07-03T07:49:04.579Z,101143.91
2017-07-03T07:51:33.628Z,101139.61
2017-07-03T07:54:02.744Z,101138.87
2017-07-03T07:56:31.785Z,101124.92
2017-07-03T07:59:00.892Z,101130.42
2017-07-03T08:01:29.981Z,101121.78
2017-07-03T08:03:59.064Z,101129.63
2017-07-03T08:06:28.126Z,101118.82
2017-07-03T08:08:57.187Z,101116.14
2017-07-03T08:11:26.286Z,101123.66
2017-07-03T08:13:55.320Z,101122.35
2017-07-03T08:16:24.386Z,101126.28
2017-07-03T08:18:53.445Z,101117.64
2017-07-03T08:21:22.491Z,101114.17
2017-07-03T08:23:51.564Z,101119.25
2017-07-03T08:26:20.667Z,101116.91
2017-07-03T08:28:49.742Z,101111.95
2017-07-03T08:31:18.776Z,101108.65
2017-07-03T08:33:47.909Z,101113.78
2017-07-03T08:36:16.953Z,101110.59
2017-07-03T08:38:46.002Z,101105.88
2017-07-03T08:41:15.086Z,101113.99
2017-07-03T08:43:44.348Z,101108.06
2017-07-03T08:46:13.500Z,101109.53
2017-07-03T08:48:42.561Z,101108.45
2017-07-03T08:51:11.624Z,101103.72
2017-07-03T08:53:40.708Z,101100.42
2017-07-03T08:56:09.802Z,101099.97
2017-07-03T08:58:38.889Z,101097.48
2017-07-03T09:01:07.976Z,101097.59
2017-07-03T09:03:37.029Z,101093.94
2017-07-03T09:06:06.110Z,101083.48
2017-07-03T09:08:35.161Z,101086.33
2017-07-03T09:11:04.239Z,101079.88
2017-07-03T09:13:33.288Z,101076.70
2017-07-03T09:16:02.357Z,101076.12
2017-07-03T09:18:31.413Z,101072.78
2017-07-03T09:21:00.520Z,101066.18
2017-07-03T09:23:29.595Z,101069.98
2017-07-03T09:25:58.642Z,101068.81
2017-07-03T09:28:27.717Z,101065.70
2017-07-03T09:30:56.918Z,101058.99
2017-07-03T09:33:25.985Z,101052.66
2017-07-03T09:35:55.032Z,101047.55
2017-07-03T09:38:24.119Z,101046.97
2017-07-03T09:40:53.413Z,101048.32
2017-07-03T09:43:22.756Z,101053.11
2017-07-03T09:45:51.796Z,101043.64
2017-07-03T09:48:20.891Z,101038.28
2017-07-03T09:50:49.953Z,101043.64
2017-07-03T09:53:19.012Z,101039.64
2017-07-03T09:55:48.056Z,101039.24
2017-07-03T09:58:17.157Z,101033.56
2017-07-03T10:00:46.212Z,101030.45
2017-07-03T10:03:15.310Z,101030.25
2017-07-03T10:05:44.416Z,101036.63
2017-07-03T10:08:13.479Z,101027.72
2017-07-03T10:10:42.560Z,101022.22
2017-07-03T10:13:11.607Z,101020.70
2017-07-03T10:15:40.690Z,101024.09
2017-07-03T10:18:09.821Z,101026.87
2017-07-03T10:20:38.908Z,101015.36
2017-07-03T10:23:08.002Z,101009.61
2017-07-03T10:25:37.083Z,101019.54
2017-07-03T10:28:06.140Z,101013.97
2017-07-03T10:30:35.247Z,101021.91
2017-07-03T10:33:04.299Z,101016.17
2017-07-03T10:35:33.401Z,101010.80
2017-07-03T10:38:02.480Z,101009.80
2017-07-03T10:40:31.571Z,101011.99
2017-07-03T10:43:00.610Z,100999.49
2017-07-03T10:45:29.678Z,101006.79
2017-07-03T10:47:58.725Z,101011.75
2017-07-03T10:50:27.831Z,101006.20
2017-07-03T10:52:56.933Z,100998.69
2017-07-03T10:55:25.988Z,100998.28
2017-07-03T10:57:55.052Z,100988.56
2017-07-03T11:00:24.143Z,100983.61
2017-07-03T11:02:53.192Z,100989.37
2017-07-03T11:05:22.285Z,100983.20
2017-07-03T11:07:51.422Z,100976.26
2017-07-03T11:10:20.472Z,100980.63
2017-07-03T11:12:49.573Z,100975.87
2017-07-03T11:15:18.623Z,100975.48
2017-07-03T11:17:47.925Z,100963.19
2017-07-03T11:20:16.995Z,100955.61
2017-07-03T11:22:46.082Z,100957.20
2017-07-03T11:25:15.137Z,100947.89
2017-07-03T11:27:44.481Z,100959.02
2017-07-03T11:30:13.584Z,100954.44
2017-07-03T11:32:42.642Z,100955.03
2017-07-03T11:35:11.708Z,100953.04
2017-07-03T11:37:40.772Z,100957.02
2017-07-03T11:40:09.854Z,100955.81
2017-07-03T11:42:38.916Z,100945.09
2017-07-03T11:45:08.233Z,100948.48
2017-07-03T11:47:37.306Z,100956.63
2017-07-03T11:50:06.364Z,100950.48
2017-07-03T11:52:35.440Z,100950.86
2017-07-03T11:55:04.544Z,100944.91
2017-07-03T11:57:33.583Z,100945.49
2017-07-03T12:00:02.653Z,100948.27
2017-07-03T12:02:31.707Z,100945.88
2017-07-03T12:05:00.782Z,100948.87
2017-07-03T12:07:29.842Z,100942.91
2017-07-03T12:09:58.919Z,100930.62
2017-07-03T12:12:28.023Z,100933.02
2017-07-03T12:14:57.123Z,100936.75
2017-07-03T12:17:26.192Z,100922.25
2017-07-03T12:19:55.227Z,100929.99
2017-07-03T12:22:24.301Z,100920.64
2017-07-03T12:24:53.407Z,100919.05
2017-07-03T12:27:22.457Z,100915.08
2017-07-03T12:29:51.579Z,100919.05
2017-07-03T12:32:20.631Z,100910.55
2017-07-03T12:34:49.773Z,100905.98
2017-07-03T12:37:18.867Z,100908.41
2017-07-03T12:39:47.948Z,100905.59
2017-07-03T12:42:17.017Z,100900.43
2017-07-03T12:44:46.063Z,100911.75
2017-07-03T12:47:15.131Z,100909.16
2017-07-03T12:49:44.222Z,100904.23
2017-07-03T12:52:13.304Z,100909.20
2017-07-03T12:54:42.600Z,100897.29
2017-07-03T12:57:11.685Z,100893.11
2017-07-03T12:59:40.788Z,100896.67
2017-07-03T13:02:09.869Z,100901.40
2017-07-03T13:04:38.908Z,100900.82
2017-07-03T13:07:07.970Z,100893.25
2017-07-03T13:09:37.296Z,100894.25
2017-07-03T13:12:06.357Z,100893.45
2017-07-03T13:14:35.428Z,100887.08
2017-07-03T13:17:04.515Z,100884.77
2017-07-03T13:19:33.648Z,100890.14
2017-07-03T13:22:02.975Z,100892.73
2017-07-03T13:24:32.272Z,100890.94
2017-07-03T13:27:01.502Z,100887.54
2017-07-03T13:29:30.628Z,100887.97
2017-07-03T13:31:59.667Z,100886.38
2017-07-03T13:34:28.742Z,100881.01
2017-07-03T13:36:57.772Z,100886.17
2017-07-03T13:39:26.828Z,100888.37
2017-07-03T13:41:55.904Z,100884.17
2017-07-03T13:44:24.951Z,100880.60
2017-07-03T13:46:54.061Z,100889.73
2017-07-03T13:49:23.142Z,100886.94
2017-07-03T13:51:52.205Z,100878.23
2017-07-03T13:54:21.268Z,100887.58
2017-07-03T13:56:50.346Z,100880.23
2017-07-03T13:59:19.417Z,100885.78
2017-07-03T14:01:48.478Z,100882.41
2017-07-03T14:04:17.644Z,100878.63
2017-07-03T14:06:48.147Z,100876.06
2017-07-03T14:09:17.391Z,100878.23
2017-07-03T14:11:46.463Z,100879.23
2017-07-03T14:14:15.506Z,100866.52
2017-07-03T14:16:44.583Z,100877.05
2017-07-03T14:19:13.631Z,100870.31
2017-07-03T14:21:42.734Z,100873.09
2017-07-03T14:24:11.783Z,100874.06
2017-07-03T14:26:40.864Z,100867.31
2017-07-03T14:29:09.953Z,100863.94
2017-07-03T14:31:39.000Z,100865.92
2017-07-03T14:34:08.100Z,100865.91
2017-07-03T14:36:37.156Z,100860.34
2017-07-03T14:39:06.254Z,100853.80
2017-07-03T14:41:35.331Z,100855.80
2017-07-03T14:44:04.401Z,100857.99
2017-07-03T14:46:33.538Z,100853.41
2017-07-03T14:49:02.591Z,100855.22
2017-07-03T14:51:31.635Z,100850.84
2017-07-03T14:54:00.745Z,100847.06
2017-07-03T14:56:29.833Z,100838.92
2017-07-03T14:58:58.884Z,100837.59
2017-07-03T15:01:28.140Z,100838.17
2017-07-03T15:03:57.203Z,100835.57
2017-07-03T15:06:26.285Z,100836.77
2017-07-03T15:08:55.344Z,100835.77
2017-07-03T15:11:24.400Z,100836.35
2017-07-03T15:13:53.505Z,100837.56
2017-07-03T15:16:22.535Z,100833.58
2017-07-03T15:18:51.592Z,100828.05
2017-07-03T15:21:20.683Z,100832.00
2017-07-03T15:23:49.798Z,100832.78
2017-07-03T15:26:18.879Z,100828.02
2017-07-03T15:28:47.982Z,100831.59
2017-07-03T15:31:17.040Z,100825.04
2017-07-03T15:33:46.125Z,100822.27
2017-07-03T15:36:15.183Z,100815.95
2017-07-03T15:38:44.287Z,100810.97
2017-07-03T15:41:13.429Z,100807.63
2017-07-03T15:43:42.557Z,100801.26
2017-07-03T15:46:11.697Z,100795.11
2017-07-03T15:48:40.789Z,100796.09
2017-07-03T15:51:09.828Z,100794.94
2017-07-03T15:53:38.930Z,100791.95
2017-07-03T15:56:08.038Z,100787.00
2017-07-03T15:58:37.098Z,100789.16
2017-07-03T16:01:06.176Z,100792.34
2017-07-03T16:03:35.272Z,100785.02
2017-07-03T16:06:04.321Z,100782.45
2017-07-03T16:08:33.399Z,100774.89
2017-07-03T16:11:02.533Z,100778.67
2017-07-03T16:13:31.612Z,100782.62
2017-07-03T16:16:00.741Z,100778.84
2017-07-03T16:18:29.792Z,100779.63
2017-07-03T16:20:58.831Z,100771.49
2017-07-03T16:23:27.919Z,100778.05
2017-07-03T16:25:56.976Z,100782.80
2017-07-03T16:28:26.049Z,100776.64
2017-07-03T16:30:55.101Z,100770.13
2017-07-03T16:33:24.162Z,100764.98
2017-07-03T16:35:53.203Z,100766.37
2017-07-03T16:38:22.273Z,100754.45
2017-07-03T16:40:51.357Z,100758.63
2017-07-03T16:43:20.452Z,100760.80
2017-07-03T16:45:49.523Z,100758.23
2017-07-03T16:48:18.621Z,100762.81
2017-07-03T16:50:47.665Z,100767.16
2017-07-03T16:53:16.699Z,100761.43
2017-07-03T16:55:45.790Z,100760.61
2017-07-03T16:58:14.921Z,100752.69
2017-07-03T17:00:44.013Z,100759.23
2017-07-03T17:03:13.905Z,100757.66
2017-07-03T17:05:42.991Z,100759.22
2017-07-03T17:08:12.086Z,100758.64
2017-07-03T17:10:41.171Z,100763.60
2017-07-03T17:13:10.237Z,100755.05
2017-07-03T17:15:39.335Z,100762.22
2017-07-03T17:18:08.454Z,100763.22
2017-07-03T17:20:37.535Z,100761.03
2017-07-03T17:23:06.608Z,100765.78
2017-07-03T17:25:35.931Z,100754.84
2017-07-03T17:28:04.995Z,100755.63
2017-07-03T17:30:34.055Z,100760.59
2017-07-03T17:33:03.900Z,100766.72
2017-07-03T17:35:32.982Z,100761.56
2017-07-03T17:38:02.820Z,100764.91
2017-07-03T17:40:31.886Z,100763.14
2017-07-03T17:43:01.751Z,100762.52
2017-07-03T17:45:31.141Z,100758.56
2017-07-03T17:48:00.176Z,100760.33
2017-07-03T17:50:29.308Z,100759.12
2017-07-03T17:52:59.103Z,100762.66
2017-07-03T17:55:29.293Z,100765.04
2017-07-03T17:57:58.339Z,100764.05
2017-07-03T18:00:27.393Z,100765.81
2017-07-03T18:02:56.477Z,100764.23
2017-07-03T18:05:25.528Z,100767.00
2017-07-03T18:07:54.632Z,100767.97
2017-07-03T18:10:23.671Z,100764.17
2017-07-03T18:12:52.772Z,100770.84
2017-07-03T18:15:21.851Z,100768.84
2017-07-03T18:17:50.955Z,100771.41
2017-07-03T18:20:20.018Z,100775.13
2017-07-03T18:22:49.111Z,100769.56
2017-07-03T18:25:18.200Z,100772.33
2017-07-03T18:27:47.250Z,100774.27
2017-07-03T18:30:16.311Z,100770.70
2017-07-03T18:32:45.368Z,100774.27
2017-07-03T18:35:14.713Z,100777.78
2017-07-03T18:37:43.789Z,100770.82
2017-07-03T18:40:12.883Z,100781.45
2017-07-03T18:42:41.982Z,100779.48
2017-07-03T18:45:11.036Z,100776.91
2017-07-03T18:47:40.873Z,100777.70
2017-07-03T18:50:10.800Z,100774.53
2017-07-03T18:52:39.904Z,100772.91
2017-07-03T18:55:08.999Z,100774.44
2017-07-03T18:57:38.029Z,100773.64
2017-07-03T19:00:07.577Z,100772.03
2017-07-03T19:02:37.373Z,100773.61
2017-07-03T19:05:06.451Z,100779.37
2017-07-03T19:07:36.413Z,100778.79
2017-07-03T19:10:05.632Z,100776.56
2017-07-03T19:12:34.733Z,100777.75
2017-07-03T19:15:03.822Z,100775.17
2017-07-03T19:17:32.894Z,100772.92
2017-07-03T19:20:02.005Z,100779.20
2017-07-03T19:22:31.087Z,100775.64
2017-07-03T19:25:00.130Z,100780.98
2017-07-03T19:27:29.214Z,100781.62
2017-07-03T19:29:58.280Z,100774.74
2017-07-03T19:32:27.556Z,100776.36
2017-07-03T19:34:56.667Z,100777.75
2017-07-03T19:37:25.735Z,100780.63
2017-07-03T19:39:55.564Z,100776.95
2017-07-03T19:42:24.637Z,100782.09
2017-07-03T19:44:54.455Z,100781.70
2017-07-03T19:47:23.525Z,100779.34
2017-07-03T19:49:52.600Z,100786.17
2017-07-03T19:52:21.691Z,100787.34
2017-07-03T19:54:50.829Z,100788.42
2017-07-03T19:57:20.683Z,100788.77
2017-07-03T19:59:49.772Z,100793.64
2017-07-03T20:02:18.843Z,100788.30
2017-07-03T20:04:48.862Z,100792.64
2017-07-03T20:07:18.677Z,100797.13
2017-07-03T20:09:47.762Z,100798.11
2017-07-03T20:12:16.852Z,100802.01
2017-07-03T20:14:46.709Z,100793.17
2017-07-03T20:17:15.803Z,100789.23
2017-07-03T20:19:44.854Z,100795.75
2017-07-03T20:22:14.697Z,100798.77
2017-07-03T20:24:43.793Z,100804.11
2017-07-03T20:27:13.645Z,100801.92
2017-07-03T20:29:42.749Z,100802.52
2017-07-03T20:32:11.795Z,100809.00
2017-07-03T20:34:40.877Z,100798.91
2017-07-03T20:37:10.712Z,100813.73
2017-07-03T20:39:39.778Z,100813.32
2017-07-03T20:42:08.831Z,100815.45
2017-07-03T20:44:37.894Z,100814.25
2017-07-03T20:47:07.059Z,100814.06
2017-07-03T20:49:36.102Z,100811.09
2017-07-03T20:52:05.149Z,100809.70
2017-07-03T20:54:34.249Z,100812.06
2017-07-03T20:57:03.354Z,100809.11
2017-07-03T20:59:32.544Z,100809.31
2017-07-03T21:02:02.355Z,100823.48
2017-07-03T21:04:31.468Z,100816.47
2017-07-03T21:07:00.516Z,100823.98
2017-07-03T21:09:29.576Z,100817.25
2017-07-03T21:11:58.661Z,100827.39
2017-07-03T21:14:27.729Z,100821.78
2017-07-03T21:16:57.565Z,100826.81
2017-07-03T21:19:26.682Z,100827.77
2017-07-03T21:21:55.728Z,100826.64
2017-07-03T21:24:25.176Z,100836.82
2017-07-03T21:26:54.960Z,100830.66
2017-07-03T21:29:24.029Z,100840.25
2017-07-03T21:31:53.110Z,100843.66
2017-07-03T21:34:22.246Z,100842.76
2017-07-03T21:36:51.353Z,100843.93
2017-07-03T21:39:20.415Z,100844.52
2017-07-03T21:41:49.584Z,100844.91
2017-07-03T21:44:18.680Z,100843.72
2017-07-03T21:46:47.752Z,100854.30
2017-07-03T21:49:16.877Z,100849.27
2017-07-03T21:51:46.131Z,100845.33
2017-07-03T21:54:15.166Z,100860.36
2017-07-03T21:56:44.236Z,100854.14
2017-07-03T21:59:14.143Z,100849.47
2017-07-03T22:01:43.189Z,100853.78
2017-07-03T22:04:12.299Z,100849.04
2017-07-03T22:06:41.361Z,100846.59
2017-07-03T22:09:10.473Z,100852.12
2017-07-03T22:11:39.551Z,100848.25
2017-07-03T22:14:08.673Z,100842.36
2017-07-03T22:16:37.733Z,100846.77
2017-07-03T22:19:06.809Z,100852.42
2017-07-03T22:21:35.920Z,100846.55
2017-07-03T22:24:05.011Z,100853.08
2017-07-03T22:26:34.061Z,100854.28
2017-07-03T22:29:03.125Z,100856.32
2017-07-03T22:31:32.220Z,100856.34
2017-07-03T22:34:01.264Z,100853.49
2017-07-03T22:36:30.495Z,100855.48
2017-07-03T22:38:59.586Z,100860.44
2017-07-03T22:41:28.663Z,100856.35
2017-07-03T22:43:57.695Z,100858.37
2017-07-03T22:46:26.761Z,100858.88
2017-07-03T22:48:55.864Z,100861.33
2017-07-03T22:51:24.949Z,100859.80
2017-07-03T22:53:53.995Z,100858.61
2017-07-03T22:56:23.072Z,100855.16
2017-07-03T22:58:52.150Z,100863.89
2017-07-03T23:01:21.211Z,100862.52
2017-07-03T23:03:50.268Z,100859.09
2017-07-03T23:06:19.324Z,100863.25
2017-07-03T23:08:48.404Z,100864.73
2017-07-03T23:11:17.493Z,100864.03
2017-07-03T23:13:46.570Z,100866.28
2017-07-03T23:16:15.767Z,100863.14
2017-07-03T23:18:44.842Z,100864.08
2017-07-03T23:21:13.901Z,100866.48
2017-07-03T23:23:42.978Z,100865.88
2017-07-03T23:26:12.059Z,100868.08
2017-07-03T23:28:41.134Z,100870.91
2017-07-03T23:31:10.280Z,100874.80
2017-07-03T23:33:39.338Z,100870.64
2017-07-03T23:36:08.412Z,100876.30
2017-07-03T23:38:37.476Z,100872.95
2017-07-03T23:41:06.576Z,100875.69
2017-07-03T23:43:35.652Z,100873.83
2017-07-03T23:46:04.685Z,100870.84
2017-07-03T23:48:33.740Z,100868.80
2017-07-03T23:51:02.810Z,100870.13
2017-07-03T23:53:31.861Z,100865.22
2017-07-03T23:56:00.915Z,100870.71
2017-07-03T23:58:29.981Z,100867.66
